Time;durP1;ratioP1;P1;durP2;ratioP2;P2;SDS_P1;SDS_P2;PMS_P1;PMS_P2;Temp;Humidity;BMP_temperature;BMP_pressure;BME280_temperature;BME280_humidity;BME280_pressure;Samples;Min_cycle;Max_cycle;Signal;HPM_P1;HPM_P2
2022/03/22 00:00:20;;;;;;;15.45;5.43;;;;;;;4.26;44.36;101554.47;5072879;28;20036;-54
2022/03/22 00:02:45;;;;;;;14.68;5.45;;;;;;;4.29;44.63;101562.31;5072553;28;20032;-51
2022/03/22 00:05:11;;;;;;;16.20;6.13;;;;;;;4.27;44.35;101558.84;5072135;28;20033;-48
2022/03/22 00:07:36;;;;;;;13.05;5.13;;;;;;;4.24;44.97;101558.94;5072702;28;20312;-48
2022/03/22 00:10:03;;;;;;;14.50;6.07;;;;;;;4.19;45.18;101550.25;5072884;28;20057;-51
2022/03/22 00:12:28;;;;;;;14.23;6.05;;;;;;;4.21;44.94;101559.03;5072288;28;20047;-51
2022/03/22 00:14:54;;;;;;;15.43;5.47;;;;;;;4.13;45.00;101544.19;5071984;28;20474;-50
2022/03/22 00:17:21;;;;;;;17.52;6.32;;;;;;;4.15;45.67;101563.56;5072047;28;20031;-53
2022/03/22 00:19:47;;;;;;;15.30;7.18;;;;;;;4.09;45.78;101553.09;5072917;28;20111;-55
2022/03/22 00:22:14;;;;;;;15.40;6.57;;;;;;;3.98;45.75;101540.16;5071843;28;20474;-54
2022/03/22 00:24:40;;;;;;;13.88;6.80;;;;;;;3.99;45.89;101547.19;5071740;28;20066;-54
2022/03/22 00:27:06;;;;;;;14.90;6.55;;;;;;;4.04;45.94;101562.97;5071864;28;20055;-53
2022/03/22 00:29:31;;;;;;;13.88;6.32;;;;;;;3.94;46.14;101542.91;5071986;28;20028;-50
2022/03/22 00:31:57;;;;;;;16.05;6.38;;;;;;;4.01;45.75;101550.69;5071567;28;20040;-54
2022/03/22 00:34:23;;;;;;;17.75;6.18;;;;;;;3.99;45.93;101555.16;5071481;28;20032;-55
2022/03/22 00:36:50;;;;;;;15.38;5.43;;;;;;;3.95;46.47;101539.34;5071809;28;20043;-52
2022/03/22 00:39:16;;;;;;;20.92;5.72;;;;;;;3.97;45.80;101543.69;5071654;28;20024;-49
2022/03/22 00:41:42;;;;;;;13.55;5.63;;;;;;;3.96;46.15;101544.59;5071427;28;20036;-50
2022/03/22 00:44:08;;;;;;;16.45;6.30;;;;;;;3.94;45.99;101543.78;5071246;28;20056;-52
2022/03/22 00:46:36;;;;;;;18.23;6.28;;;;;;;3.85;46.11;101521.03;5071608;28;20040;-51
2022/03/22 00:49:03;;;;;;;14.57;5.70;;;;;;;3.85;45.91;101528.97;5071388;28;20029;-51
2022/03/22 00:51:29;;;;;;;17.10;5.53;;;;;;;3.86;46.28;101532.50;5071433;28;20383;-55
2022/03/22 00:53:55;;;;;;;12.40;5.47;;;;;;;3.86;46.66;101536.03;5071764;28;20089;-51
2022/03/22 00:56:20;;;;;;;14.25;5.65;;;;;;;3.85;46.20;101534.28;5071040;28;20437;-51
2022/03/22 00:58:46;;;;;;;15.65;5.88;;;;;;;3.75;46.85;101529.25;5071608;28;20111;-55
2022/03/22 01:01:11;;;;;;;16.20;5.90;;;;;;;3.81;46.35;101527.31;5071667;28;20051;-50
2022/03/22 01:03:37;;;;;;;16.30;5.50;;;;;;;3.65;46.18;101521.53;5071014;28;20029;-53
2022/03/22 01:06:04;;;;;;;15.38;5.18;;;;;;;3.75;46.39;101527.47;5070940;28;20438;-55
2022/03/22 01:08:30;;;;;;;15.48;5.50;;;;;;;3.73;46.32;101529.28;5071598;28;20082;-49
2022/03/22 01:10:55;;;;;;;16.40;5.15;;;;;;;3.71;46.28;101539.06;5071574;28;20090;-55
2022/03/22 01:13:22;;;;;;;13.60;4.38;;;;;;;3.66;46.36;101528.56;5071073;28;20036;-50
2022/03/22 01:15:49;;;;;;;17.10;4.50;;;;;;;3.59;46.47;101522.53;5053509;28;20107;-54
2022/03/22 01:18:14;;;;;;;11.32;4.47;;;;;;;3.65;46.70;101532.13;5071224;28;20040;-50
2022/03/22 01:20:48;;;;;;;14.77;4.65;;;;;;;3.64;46.18;101529.53;5070921;28;20028;-51
2022/03/22 01:23:15;;;;;;;10.10;4.63;;;;;;;3.57;46.33;101534.94;5071063;28;20123;-50
2022/03/22 01:25:41;;;;;;;17.70;4.53;;;;;;;3.61;46.40;101537.53;5071138;28;20036;-47
2022/03/22 01:28:09;;;;;;;17.00;5.40;;;;;;;3.59;46.25;101535.78;5070990;28;20032;-47
2022/03/22 01:30:36;;;;;;;12.95;4.28;;;;;;;3.57;46.19;101534.09;5070532;28;20545;-51
2022/03/22 01:33:03;;;;;;;15.23;5.10;;;;;;;3.54;46.13;101527.09;5070472;28;20110;-56
2022/03/22 01:35:29;;;;;;;13.93;4.38;;;;;;;3.52;46.12;101526.25;5053436;28;20037;-53
2022/03/22 01:37:55;;;;;;;11.60;4.15;;;;;;;3.51;46.08;101536.91;5070811;28;20039;-51
2022/03/22 01:40:23;;;;;;;15.80;4.88;;;;;;;3.49;46.23;101530.72;5070883;28;20025;-55
2022/03/22 01:42:49;;;;;;;13.02;4.50;;;;;;;3.46;46.19;101537.00;5053268;28;20059;-55
2022/03/22 01:45:16;;;;;;;10.88;4.28;;;;;;;3.38;46.91;101523.06;5071118;28;20462;-54
2022/03/22 01:47:43;;;;;;;12.40;4.65;;;;;;;3.40;46.37;101522.09;5070977;28;20028;-51
2022/03/22 01:50:14;;;;;;;13.77;5.15;;;;;;;3.39;46.43;101524.81;5070370;28;20020;-51
2022/03/22 01:52:40;;;;;;;10.52;4.22;;;;;;;3.33;46.53;101523.16;5070623;28;20454;-55
2022/03/22 01:55:11;;;;;;;17.58;4.85;;;;;;;3.35;46.47;101531.06;5071057;28;20029;-53
2022/03/22 01:57:36;;;;;;;12.35;5.30;;;;;;;3.13;46.82;101505.97;5070860;28;20463;-56
2022/03/22 02:00:08;;;;;;;14.48;4.88;;;;;;;3.27;46.22;101521.53;5070148;28;20021;-56
2022/03/22 02:08:07;;;;;;;16.13;5.05;;;;;;;3.18;47.07;101515.56;5071413;28;20033;-51
2022/03/22 02:10:34;;;;;;;13.38;4.60;;;;;;;3.09;46.80;101516.63;5074163;28;20037;-54
2022/03/22 02:13:00;;;;;;;18.40;5.45;;;;;;;2.99;47.25;101500.97;5074612;28;20466;-52
2022/03/22 02:15:26;;;;;;;14.43;5.05;;;;;;;2.95;47.33;101495.78;5074913;28;20040;-55
2022/03/22 02:17:51;;;;;;;20.27;6.45;;;;;;;2.98;47.24;101504.53;5074650;28;20025;-52
2022/03/22 02:20:18;;;;;;;14.60;4.78;;;;;;;2.93;47.39;101501.13;5074032;28;20021;-55
2022/03/22 02:22:46;;;;;;;23.80;4.70;;;;;;;2.89;47.20;101494.13;5074467;28;20036;-53
2022/03/22 02:25:15;;;;;;;19.77;5.55;;;;;;;2.84;47.21;101496.91;5074552;28;20037;-50
2022/03/22 02:27:44;;;;;;;21.88;5.20;;;;;;;2.85;47.24;101503.03;5073802;28;20131;-54
2022/03/22 02:30:13;;;;;;;21.88;5.18;;;;;;;2.53;47.38;101454.34;5074151;28;20523;-52
2022/03/22 02:32:47;;;;;;;13.10;4.47;;;;;;;2.76;47.38;101504.09;5073457;28;20060;-53
2022/03/22 02:35:13;;;;;;;19.48;5.00;;;;;;;2.69;47.42;101483.97;5073783;28;20048;-49
2022/03/22 02:37:38;;;;;;;16.23;4.95;;;;;;;2.66;47.53;101484.06;5074198;28;20024;-52
2022/03/22 02:40:07;;;;;;;21.95;4.95;;;;;;;2.73;47.23;101499.75;5073624;28;20028;-52
2022/03/22 02:42:33;;;;;;;17.13;4.95;;;;;;;2.62;47.65;101491.16;5074105;28;20029;-54
2022/03/22 02:44:58;;;;;;;15.38;5.00;;;;;;;2.68;47.50;101490.16;5073335;28;20035;-52
2022/03/22 02:47:23;;;;;;;14.65;4.70;;;;;;;2.68;47.66;101490.16;5074007;28;20412;-53
2022/03/22 02:49:49;;;;;;;14.93;4.65;;;;;;;2.61;47.32;101473.56;5074080;28;20107;-48
2022/03/22 02:52:14;;;;;;;17.73;5.22;;;;;;;2.67;47.41;101483.16;5073601;28;20035;-56
2022/03/22 02:54:40;;;;;;;16.52;5.05;;;;;;;2.64;47.38;101480.56;5073183;28;20025;-51
2022/03/22 02:57:05;;;;;;;16.45;4.82;;;;;;;2.63;47.63;101481.47;5074151;28;20037;-55
2022/03/22 02:59:31;;;;;;;18.85;4.72;;;;;;;2.61;47.27;101483.28;5073217;28;20033;-55
2022/03/22 03:01:57;;;;;;;18.02;5.95;;;;;;;2.53;47.46;101483.44;5073640;28;20040;-59
2022/03/22 03:04:23;;;;;;;19.98;5.05;;;;;;;2.53;47.66;101480.78;5074120;28;20039;-52
2022/03/22 03:06:49;;;;;;;16.45;5.70;;;;;;;2.58;47.65;101493.03;5073294;28;20082;-52
2022/03/22 03:09:14;;;;;;;14.63;5.65;;;;;;;2.59;47.54;101485.94;5073131;28;20048;-51
2022/03/22 03:11:40;;;;;;;18.33;5.32;;;;;;;2.51;47.57;101472.03;5055662;28;20029;-54
2022/03/22 03:16:49;;;;;;;24.42;5.93;;;;;;;2.60;47.88;101478.91;5073086;28;20032;-54
2022/03/22 03:19:14;;;;;;;16.85;5.22;;;;;;;2.58;47.73;101478.91;5072409;28;20024;-56
2022/03/22 03:21:40;;;;;;;23.05;4.80;;;;;;;2.58;47.42;101484.19;5073061;28;20469;-59
2022/03/22 03:24:05;;;;;;;18.70;6.03;;;;;;;2.63;47.25;101477.03;5073191;28;20082;-51
2022/03/22 03:26:31;;;;;;;23.35;5.60;;;;;;;2.63;47.11;101484.13;5073011;28;20064;-57
2022/03/22 03:28:57;;;;;;;21.88;5.32;;;;;;;2.62;47.03;101480.59;5073517;28;20029;-57
2022/03/22 03:31:23;;;;;;;15.38;5.15;;;;;;;2.63;46.37;101482.31;5073303;28;20362;-48
2022/03/22 03:33:49;;;;;;;18.88;5.15;;;;;;;2.65;46.81;101480.56;5072674;28;20052;-49
2022/03/22 03:36:14;;;;;;;14.07;5.15;;;;;;;2.63;46.72;101477.03;5072768;28;20478;-48
2022/03/22 03:38:43;;;;;;;13.73;5.30;;;;;;;2.66;46.70;101482.28;5072987;28;20033;-53
2022/03/22 03:43:54;;;;;;;11.23;4.85;;;;;;;2.56;46.73;101459.56;5072620;28;20036;-54
2022/03/22 03:49:06;;;;;;;17.92;4.85;;;;;;;2.59;46.35;101451.56;5072863;28;20032;-53
2022/03/22 03:51:33;;;;;;;18.73;4.80;;;;;;;2.78;46.49;101485.56;5072789;28;20025;-53
2022/03/22 03:53:59;;;;;;;12.82;4.63;;;;;;;2.77;46.13;101471.44;5072703;28;20498;-54
2022/03/22 03:56:25;;;;;;;13.18;4.85;;;;;;;2.78;46.11;101480.28;5071469;28;20128;-55
2022/03/22 03:58:51;;;;;;;11.38;4.22;;;;;;;2.83;46.48;101473.09;5072631;28;20335;-52
2022/03/22 04:01:16;;;;;;;16.40;5.75;;;;;;;2.93;46.20;101479.94;5072987;28;20030;-51
2022/03/22 04:03:42;;;;;;;11.55;5.00;;;;;;;3.00;46.23;101478.91;5071427;28;20024;-50
2022/03/22 04:06:07;;;;;;;10.95;4.97;;;;;;;3.05;46.15;101467.34;5053615;28;20028;-53
2022/03/22 04:08:33;;;;;;;13.98;4.82;;;;;;;3.09;45.01;101464.59;5072656;28;20039;-52
2022/03/22 04:10:58;;;;;;;10.93;5.30;;;;;;;4.03;44.06;101460.50;5072826;28;20029;-57
2022/03/22 04:13:24;;;;;;;11.18;4.68;;;;;;;6.06;39.68;101458.72;5072020;28;20116;-59
2022/03/22 04:15:50;;;;;;;10.18;5.05;;;;;;;7.89;35.68;101456.91;5071511;28;20101;-55
2022/03/22 04:18:15;;;;;;;10.73;5.10;;;;;;;9.27;32.91;101446.25;5072213;28;20028;-54
2022/03/22 04:20:41;;;;;;;13.70;5.60;;;;;;;10.52;30.68;101448.81;5054403;28;20028;-55
2022/03/22 04:23:08;;;;;;;23.88;5.68;;;;;;;11.73;28.68;101452.75;5071708;28;20025;-58
2022/03/22 04:25:34;;;;;;;14.35;4.90;;;;;;;12.88;27.01;101448.44;5071548;28;20028;-56
2022/03/22 04:33:27;;;;;;;14.82;5.93;;;;;;;15.82;22.82;101436.03;5071426;28;20568;-58
2022/03/22 04:35:52;;;;;;;14.70;5.60;;;;;;;16.62;21.58;101440.56;5071666;28;20052;-58
2022/03/22 04:38:18;;;;;;;19.70;5.60;;;;;;;17.45;20.98;101450.97;5053933;28;20059;-65
2022/03/22 04:40:43;;;;;;;15.55;5.75;;;;;;;18.15;19.48;101450.53;5071513;28;20119;-66
2022/03/22 04:43:09;;;;;;;10.65;5.47;;;;;;;18.78;19.07;101446.81;5071591;28;20040;-65
2022/03/22 04:45:35;;;;;;;12.55;5.30;;;;;;;19.18;18.52;101414.34;5071825;28;20063;-62
2022/03/22 04:48:01;;;;;;;11.50;4.97;;;;;;;19.96;17.50;101434.34;5071485;28;20450;-61
2022/03/22 04:50:27;;;;;;;9.77;5.45;;;;;;;20.65;16.88;101441.28;5070723;28;20032;-64
2022/03/22 04:58:20;;;;;;;14.02;6.25;;;;;;;22.44;14.99;101444.28;5071221;28;20135;-64
2022/03/22 05:00:46;;;;;;;11.18;5.55;;;;;;;22.93;14.56;101440.94;5053611;28;20111;-64
2022/03/22 05:03:11;;;;;;;10.45;6.07;;;;;;;23.37;14.33;101431.66;5071255;28;20028;-62
2022/03/22 05:08:21;;;;;;;11.00;6.15;;;;;;;24.68;12.71;101431.63;5071574;28;20107;-64
2022/03/22 05:10:47;;;;;;;13.98;5.80;;;;;;;25.23;12.32;101437.16;5070923;28;20033;-63
2022/03/22 05:13:12;;;;;;;12.00;5.90;;;;;;;25.82;11.90;101435.72;5071244;28;20461;-63
2022/03/22 05:15:38;;;;;;;15.10;5.80;;;;;;;26.24;11.52;101433.44;5071206;28;20060;-62
2022/03/22 05:18:04;;;;;;;10.25;5.45;;;;;;;26.59;11.19;101430.09;5071693;28;20512;-63
2022/03/22 05:20:30;;;;;;;11.43;6.00;;;;;;;26.83;10.89;101430.81;5071082;28;20037;-64
2022/03/22 05:22:57;;;;;;;9.13;5.85;;;;;;;27.14;10.90;101437.97;5070837;28;20106;-63
2022/03/22 05:25:23;;;;;;;19.25;5.80;;;;;;;27.59;10.49;101427.66;5053257;28;20034;-64
2022/03/22 05:27:48;;;;;;;11.15;6.28;;;;;;;28.10;10.13;101436.72;5071176;28;20448;-63
2022/03/22 05:30:13;;;;;;;12.57;5.25;;;;;;;28.39;9.77;101429.28;5052981;28;20034;-63
2022/03/22 05:32:39;;;;;;;15.82;6.25;;;;;;;28.77;9.79;101442.63;5070506;28;20052;-63
2022/03/22 05:35:05;;;;;;;17.25;6.43;;;;;;;29.20;8.98;101433.22;5053607;28;20371;-66
2022/03/22 05:37:30;;;;;;;14.70;6.65;;;;;;;29.68;8.76;101444.34;5071245;28;20478;-64
2022/03/22 05:39:56;;;;;;;9.50;6.03;;;;;;;29.91;8.76;101411.66;5070823;28;20027;-63
2022/03/22 05:42:21;;;;;;;13.35;5.72;;;;;;;30.46;8.02;101440.84;5069978;28;20029;-64
2022/03/22 05:44:47;;;;;;;11.00;5.70;;;;;;;30.90;8.03;101443.06;5070856;28;20051;-66
2022/03/22 05:47:13;;;;;;;12.30;5.88;;;;;;;31.18;8.21;101433.53;5071046;28;20021;-64
2022/03/22 05:49:39;;;;;;;10.00;5.57;;;;;;;31.80;7.67;101435.66;5052724;28;20114;-63
2022/03/22 05:52:06;;;;;;;14.57;5.45;;;;;;;32.28;7.11;101430.47;5036196;28;20033;-63
2022/03/22 05:54:32;;;;;;;10.25;5.70;;;;;;;32.53;7.04;101421.25;5052786;28;20020;-64
2022/03/22 05:56:58;;;;;;;12.60;5.70;;;;;;;32.85;6.78;101405.28;5070807;28;20648;-65
2022/03/22 05:59:24;;;;;;;11.90;6.00;;;;;;;33.34;6.48;101410.78;5070318;28;20033;-65
2022/03/22 06:01:49;;;;;;;11.57;5.70;;;;;;;33.72;6.60;101424.47;5070631;28;20054;-65
2022/03/22 06:04:16;;;;;;;14.85;5.82;;;;;;;34.15;6.13;101420.50;5070783;28;20029;-63
2022/03/22 06:06:42;;;;;;;15.13;6.25;;;;;;;34.65;5.90;101418.25;5070108;28;20024;-63
2022/03/22 06:09:07;;;;;;;24.38;6.15;;;;;;;35.08;5.75;101420.75;5070909;28;20039;-65
2022/03/22 06:11:35;;;;;;;12.05;5.65;;;;;;;35.52;5.63;101420.13;5052328;28;20457;-64
2022/03/22 06:14:05;;;;;;;11.90;5.63;;;;;;;36.00;5.60;101417.81;5070551;28;20034;-63
2022/03/22 06:16:31;;;;;;;17.50;5.80;;;;;;;35.96;5.46;101400.75;5069198;28;20028;-69
2022/03/22 06:18:57;;;;;;;14.55;6.03;;;;;;;36.20;5.17;101404.19;5049630;28;20116;-65
2022/03/22 06:21:23;;;;;;;14.65;5.72;;;;;;;36.30;5.14;101402.63;5051677;28;20134;-65
2022/03/22 06:23:49;;;;;;;14.52;6.15;;;;;;;36.24;5.15;101378.59;5069833;28;20040;-70
2022/03/22 06:26:15;;;;;;;14.40;6.15;;;;;;;36.28;4.97;101407.63;5052145;28;20495;-63
2022/03/22 06:28:41;;;;;;;15.73;6.07;;;;;;;36.44;4.80;101403.94;5069483;28;20528;-64
2022/03/22 06:31:07;;;;;;;15.20;5.93;;;;;;;36.62;4.71;101402.78;5051496;28;20119;-63
2022/03/22 06:33:33;;;;;;;13.55;5.95;;;;;;;37.07;4.46;101402.72;5051238;28;20091;-61
2022/03/22 06:35:59;;;;;;;12.48;5.63;;;;;;;37.58;4.49;101390.31;5069887;28;20037;-62
2022/03/22 06:38:24;;;;;;;10.50;5.50;;;;;;;38.04;4.33;101389.75;5069820;28;20051;-63
2022/03/22 06:40:50;;;;;;;15.65;6.03;;;;;;;38.66;4.10;101401.22;5050514;28;20028;-62
2022/03/22 06:43:18;;;;;;;15.23;6.15;;;;;;;38.96;3.67;101410.81;5067202;28;20458;-64
2022/03/22 06:45:45;;;;;;;14.75;5.43;;;;;;;39.04;3.82;101395.44;5051193;28;20056;-63
2022/03/22 06:48:11;;;;;;;16.25;5.30;;;;;;;39.41;3.69;101399.09;5069281;28;20085;-54
2022/03/22 06:50:38;;;;;;;16.50;6.30;;;;;;;39.72;3.38;101399.91;5068942;28;20051;-58
2022/03/22 06:53:05;;;;;;;28.90;6.68;;;;;;;40.07;3.34;101390.84;5051943;28;20024;-60
2022/03/22 06:55:31;;;;;;;13.95;6.03;;;;;;;40.34;3.26;101387.69;5069305;28;20032;-60
2022/03/22 06:57:57;;;;;;;16.35;6.15;;;;;;;40.72;3.13;101385.25;5071678;28;20028;-63
2022/03/22 07:00:23;;;;;;;13.63;5.90;;;;;;;40.81;2.79;101390.25;5071913;28;20055;-61
2022/03/22 07:02:49;;;;;;;15.80;5.55;;;;;;;41.07;2.77;101385.28;5073034;28;20028;-59
2022/03/22 07:05:15;;;;;;;17.15;5.20;;;;;;;41.29;2.75;101376.41;5073126;28;20058;-62
2022/03/22 07:07:42;;;;;;;15.90;5.75;;;;;;;41.50;2.55;101370.59;5073253;28;20094;-59
2022/03/22 07:10:13;;;;;;;10.88;4.88;;;;;;;42.04;2.88;101376.22;5055331;28;20028;-61
2022/03/22 07:12:46;;;;;;;12.35;5.15;;;;;;;42.11;2.81;101368.25;5073317;28;20508;-64
2022/03/22 07:15:12;;;;;;;8.68;4.78;;;;;;;41.51;2.38;101338.53;5054431;28;20040;-59
2022/03/22 07:17:40;;;;;;;14.05;4.93;;;;;;;41.49;2.54;101348.41;5071082;28;20035;-61
2022/03/22 07:20:06;;;;;;;12.90;5.20;;;;;;;41.60;2.28;101333.97;5073049;28;20025;-61
2022/03/22 07:22:31;;;;;;;12.95;4.78;;;;;;;42.02;2.41;101353.19;5073280;28;20055;-62
2022/03/22 07:24:58;;;;;;;11.93;4.85;;;;;;;42.33;1.83;101364.03;5072388;28;20466;-60
2022/03/22 07:27:23;;;;;;;14.00;4.88;;;;;;;42.57;2.10;101365.97;5054444;28;20029;-61
2022/03/22 07:29:50;;;;;;;13.57;5.22;;;;;;;42.98;1.93;101365.34;5073092;28;20028;-61
2022/03/22 07:32:16;;;;;;;10.73;4.40;;;;;;;42.89;1.71;101365.22;5072558;28;20100;-61
2022/03/22 07:34:41;;;;;;;19.80;4.82;;;;;;;42.61;1.77;101336.06;5072581;28;20059;-56
2022/03/22 07:37:07;;;;;;;10.43;4.70;;;;;;;42.59;2.02;101329.91;5072460;28;20462;-61
2022/03/22 07:39:34;;;;;;;15.98;4.50;;;;;;;42.56;1.74;101353.03;5072898;28;20083;-62
2022/03/22 07:42:01;;;;;;;12.13;5.00;;;;;;;42.17;2.00;101371.84;5072818;28;20020;-59
2022/03/22 07:44:27;;;;;;;12.20;5.07;;;;;;;41.76;1.99;101353.47;5054400;28;20056;-63
2022/03/22 07:46:53;;;;;;;12.60;4.82;;;;;;;41.10;2.07;101347.34;5070271;28;20032;-58
2022/03/22 07:54:47;;;;;;;11.00;4.35;;;;;;;40.21;2.60;101355.47;5056627;28;20108;-65
2022/03/22 07:57:12;;;;;;;12.32;4.50;;;;;;;39.65;2.72;101348.06;5053953;28;20028;-60
2022/03/22 07:59:38;;;;;;;11.75;3.92;;;;;;;38.94;2.77;101339.41;5072910;28;20470;-62
2022/03/22 08:02:04;;;;;;;9.77;4.40;;;;;;;37.53;3.47;101318.47;5072706;28;20032;-62
2022/03/22 08:04:30;;;;;;;15.18;4.05;;;;;;;35.19;4.23;101331.63;5071169;28;20025;-61
2022/03/22 08:06:56;;;;;;;11.43;4.82;;;;;;;32.40;5.92;101334.44;5071123;28;20040;-59
2022/03/22 08:09:21;;;;;;;14.15;5.10;;;;;;;29.57;6.84;101300.41;5072414;28;20390;-62
2022/03/22 08:11:47;;;;;;;16.58;4.40;;;;;;;27.24;8.23;101331.25;5072195;28;20032;-61
2022/03/22 08:14:13;;;;;;;19.40;4.85;;;;;;;25.03;10.05;101327.19;5071761;28;20597;-59
2022/03/22 08:16:40;;;;;;;11.57;4.70;;;;;;;23.23;11.09;101338.34;5051983;28;20021;-64
2022/03/22 08:19:07;;;;;;;21.58;4.25;;;;;;;21.62;12.51;101318.16;5063425;28;20029;-65
2022/03/22 08:21:33;;;;;;;11.68;4.40;;;;;;;20.47;13.12;101323.38;5071360;28;20469;-60
2022/03/22 08:23:59;;;;;;;16.98;5.13;;;;;;;19.65;14.11;101330.28;5053664;28;20021;-61
2022/03/22 08:26:25;;;;;;;16.00;4.45;;;;;;;19.01;14.70;101313.63;5053421;28;20043;-62
2022/03/22 08:28:50;;;;;;;14.45;4.15;;;;;;;18.54;14.91;101325.09;5052955;28;20035;-59
2022/03/22 08:31:16;;;;;;;14.20;4.05;;;;;;;18.11;15.39;101310.88;5071670;28;20037;-62
2022/03/22 08:33:41;;;;;;;17.27;3.97;;;;;;;17.57;15.51;101275.78;5071148;28;20120;-63
2022/03/22 08:36:07;;;;;;;18.63;4.07;;;;;;;17.46;16.00;101298.38;5053498;28;20462;-60
2022/03/22 08:38:33;;;;;;;21.73;4.00;;;;;;;16.98;16.36;101245.63;5070673;28;20389;-64
2022/03/22 08:40:58;;;;;;;11.10;3.25;;;;;;;17.03;16.18;101283.13;5070782;28;20033;-60
2022/03/22 08:43:25;;;;;;;9.05;3.22;;;;;;;16.89;15.91;101295.09;5070837;28;20068;-65
2022/03/22 08:45:52;;;;;;;13.90;3.05;;;;;;;16.52;16.49;101281.91;5053401;28;20389;-57
2022/03/22 08:48:17;;;;;;;6.90;2.65;;;;;;;16.39;16.96;101273.97;5051732;28;20028;-61
2022/03/22 08:50:45;;;;;;;6.80;2.85;;;;;;;16.39;16.76;101282.91;5071726;28;20074;-57
2022/03/22 08:53:12;;;;;;;10.68;3.08;;;;;;;16.33;17.19;101284.31;5071718;28;20047;-63
2022/03/22 08:55:37;;;;;;;9.95;2.50;;;;;;;16.11;16.76;101279.78;5069064;28;20544;-62
2022/03/22 08:58:05;;;;;;;8.00;2.78;;;;;;;16.03;16.85;101277.69;5071033;28;20099;-61
2022/03/22 09:00:33;;;;;;;10.82;2.33;;;;;;;15.99;17.04;101281.63;5071050;28;20060;-63
2022/03/22 09:02:59;;;;;;;15.30;2.42;;;;;;;15.98;17.26;101273.66;5069218;28;20032;-62
2022/03/22 09:08:09;;;;;;;11.20;2.70;;;;;;;15.91;16.52;101263.34;5071229;28;20032;-57
2022/03/22 09:10:35;;;;;;;10.13;2.83;;;;;;;15.78;16.59;101262.59;5052629;28;20046;-61
2022/03/22 09:13:02;;;;;;;14.55;2.22;;;;;;;15.83;16.96;101264.94;5053052;28;20082;-56
2022/03/22 09:15:28;;;;;;;7.30;2.10;;;;;;;15.70;16.70;101263.19;5070702;28;20445;-61
2022/03/22 09:17:55;;;;;;;6.03;1.77;;;;;;;15.64;16.06;101271.78;5069513;28;20028;-62
2022/03/22 09:20:22;;;;;;;4.50;1.40;;;;;;;15.33;16.09;101226.47;5070201;28;20104;-60
2022/03/22 09:22:49;;;;;;;7.68;1.50;;;;;;;15.55;16.23;101267.97;5070589;28;20095;-65
2022/03/22 09:25:16;;;;;;;8.63;1.55;;;;;;;15.43;15.99;101232.00;5070122;28;20043;-64
2022/03/22 09:27:42;;;;;;;14.13;1.45;;;;;;;15.57;15.65;101247.09;5071180;28;20039;-61
2022/03/22 09:30:10;;;;;;;4.32;1.20;;;;;;;15.68;15.58;101258.91;5068947;28;20070;-63
2022/03/22 09:32:36;;;;;;;15.23;1.83;;;;;;;15.64;14.87;101251.03;5069634;28;20134;-62
2022/03/22 09:35:06;;;;;;;6.95;1.20;;;;;;;15.64;14.95;101242.09;5063289;28;20041;-62
2022/03/22 09:37:36;;;;;;;7.53;1.52;;;;;;;15.68;15.26;101248.94;5070538;28;20081;-62
2022/03/22 09:40:03;;;;;;;5.72;1.50;;;;;;;15.67;14.95;101244.53;5070220;28;20134;-63
2022/03/22 09:42:30;;;;;;;5.63;1.60;;;;;;;15.51;15.04;101212.50;5070211;28;20032;-62
2022/03/22 09:44:58;;;;;;;7.80;1.52;;;;;;;15.47;14.54;101225.38;5052895;28;20020;-62
2022/03/22 09:47:24;;;;;;;7.20;1.88;;;;;;;15.49;15.17;101241.47;5070851;28;20082;-59
2022/03/22 09:49:51;;;;;;;10.93;1.98;;;;;;;15.52;15.53;101245.75;5070173;28;20079;-61
2022/03/22 09:52:16;;;;;;;7.82;1.55;;;;;;;15.44;15.52;101240.97;5069211;28;20060;-59
2022/03/22 09:54:42;;;;;;;2.80;1.48;;;;;;;15.51;14.95;101244.91;5069252;28;20064;-62
2022/03/22 09:57:07;;;;;;;7.45;1.40;;;;;;;15.44;15.01;101247.22;5069312;28;20031;-64
2022/03/22 09:59:36;;;;;;;4.35;1.50;;;;;;;15.26;15.45;101241.44;5068642;28;20029;-63
2022/03/22 10:02:06;;;;;;;3.20;1.48;;;;;;;15.19;15.26;101243.75;5069984;28;20064;-64
2022/03/22 10:04:40;;;;;;;4.80;1.27;;;;;;;15.11;15.08;101242.59;5069950;28;20114;-61
2022/03/22 10:07:29;;;;;;;5.22;1.50;;;;;;;14.97;15.29;101247.25;5070221;28;20350;-63
2022/03/22 10:10:06;;;;;;;6.47;1.35;;;;;;;15.05;15.33;101242.13;5069839;28;20024;-66
2022/03/22 10:12:37;;;;;;;11.15;1.25;;;;;;;14.99;14.74;101229.09;5069443;28;20062;-63
2022/03/22 10:15:11;;;;;;;12.68;1.58;;;;;;;15.01;14.75;101243.34;5070005;28;20028;-62
2022/03/22 10:17:37;;;;;;;4.68;1.25;;;;;;;14.83;14.70;101225.84;5069037;28;20028;-63
2022/03/22 10:20:05;;;;;;;6.95;1.27;;;;;;;14.81;15.02;101231.34;5069373;28;20071;-66
2022/03/22 10:22:32;;;;;;;8.20;1.40;;;;;;;14.82;15.16;101234.94;5069545;28;20093;-67
2022/03/22 10:24:59;;;;;;;11.25;1.13;;;;;;;14.58;15.22;101192.66;5070332;28;20028;-64
2022/03/22 10:27:36;;;;;;;6.57;1.10;;;;;;;14.67;15.27;101221.59;5069836;28;20048;-62
2022/03/22 10:30:08;;;;;;;3.30;1.33;;;;;;;14.73;15.26;101223.00;5072548;28;20035;-63
2022/03/22 10:32:52;;;;;;;3.28;1.08;;;;;;;14.70;15.34;101225.91;5073797;28;20056;-61
2022/03/22 10:35:22;;;;;;;8.10;1.70;;;;;;;14.73;15.37;101223.00;5073444;28;20178;-66
2022/03/22 10:37:50;;;;;;;3.97;1.40;;;;;;;14.70;15.66;101218.66;5072928;28;20024;-65
2022/03/22 10:40:36;;;;;;;5.80;1.20;;;;;;;14.82;15.55;101222.28;5072480;28;20036;-62
2022/03/22 10:43:07;;;;;;;4.35;1.38;;;;;;;14.74;15.61;101213.94;5073588;28;20041;-64
2022/03/22 10:46:00;;;;;;;5.82;1.20;;;;;;;14.86;15.14;101202.22;5073641;28;20436;-64
2022/03/22 10:48:38;;;;;;;6.45;1.17;;;;;;;14.83;15.26;101199.78;5073257;28;20044;-56
2022/03/22 10:51:06;;;;;;;2.70;1.02;;;;;;;14.76;15.37;101207.47;5072736;28;20086;-61
2022/03/22 10:53:34;;;;;;;7.70;1.13;;;;;;;14.82;15.35;101202.56;5056044;28;20052;-61
2022/03/22 10:56:02;;;;;;;7.43;1.60;;;;;;;14.80;15.56;101201.84;5071761;28;20040;-58
2022/03/22 10:58:29;;;;;;;3.13;1.08;;;;;;;14.76;15.90;101204.75;5055298;28;20085;-56
2022/03/22 11:00:56;;;;;;;9.57;1.65;;;;;;;14.77;16.28;101200.22;5055063;28;20444;-56
2022/03/22 11:03:24;;;;;;;5.63;1.33;;;;;;;14.76;16.31;101199.38;5073547;28;20032;-63
2022/03/22 11:05:54;;;;;;;6.60;0.90;;;;;;;14.83;16.02;101196.19;5072758;28;20063;-62
2022/03/22 11:08:25;;;;;;;6.03;1.50;;;;;;;14.76;15.72;101203.88;5072989;28;20028;-60
2022/03/22 11:10:53;;;;;;;6.30;1.45;;;;;;;14.71;15.72;101196.19;5054863;28;20024;-60
2022/03/22 11:13:19;;;;;;;4.63;1.42;;;;;;;14.62;15.49;101188.75;5073548;28;20029;-60
2022/03/22 11:15:47;;;;;;;3.88;1.20;;;;;;;14.39;15.57;101150.94;5073148;28;20027;-61
2022/03/22 11:18:15;;;;;;;2.42;1.17;;;;;;;14.65;15.64;101177.72;5072924;28;20390;-61
2022/03/22 11:21:01;;;;;;;3.95;0.98;;;;;;;14.68;15.43;101182.88;5073011;28;20485;-61
2022/03/22 11:23:28;;;;;;;3.90;1.13;;;;;;;14.64;15.45;101179.56;5073230;28;20377;-60
2022/03/22 11:25:54;;;;;;;3.10;1.02;;;;;;;14.19;15.51;101123.66;5038111;28;20087;-61
2022/03/22 11:28:23;;;;;;;5.25;1.52;;;;;;;14.55;15.69;101182.09;5072325;28;20070;-57
2022/03/22 11:30:51;;;;;;;5.45;1.23;;;;;;;14.49;15.78;101170.81;5072501;28;20113;-60
2022/03/22 11:36:19;;;;;;;2.30;1.20;;;;;;;14.69;15.70;101168.41;5071980;28;20037;-62
2022/03/22 11:38:52;;;;;;;7.55;1.75;;;;;;;14.61;15.86;101173.53;5072150;28;20453;-58
2022/03/22 11:44:21;;;;;;;4.28;1.38;;;;;;;14.54;15.83;101175.84;5055542;28;20111;-61
2022/03/22 11:47:01;;;;;;;5.65;0.95;;;;;;;14.38;15.83;101173.47;5059201;28;20102;-59
2022/03/22 11:49:27;;;;;;;2.78;0.90;;;;;;;14.24;16.10;101173.66;5050137;28;20044;-58
2022/03/22 11:52:19;;;;;;;4.45;1.05;;;;;;;14.17;16.33;101166.00;5072507;28;20032;-59
2022/03/22 11:55:19;;;;;;;8.25;1.15;;;;;;;14.27;15.88;101160.78;5067154;28;20122;-56
2022/03/22 11:58:03;;;;;;;2.70;1.30;;;;;;;14.11;15.95;101158.38;5018037;28;20044;-58
2022/03/22 12:00:47;;;;;;;9.48;1.17;;;;;;;14.11;16.22;101163.78;5072412;28;20181;-62
2022/03/22 12:03:14;;;;;;;5.05;1.08;;;;;;;13.97;16.31;101158.53;5072111;28;20036;-57
2022/03/22 12:05:40;;;;;;;2.80;1.00;;;;;;;13.97;16.48;101159.41;5071279;28;20582;-60